Aérodrome :
LOGIN :

S'inscrire | Disclaimer

   EN    FR    IT 

 










Légende :    VFR   VFR Marginal   IFR   IFR Intensif   IFR Très Intensif
Visi : 
Plafond : 
>= 8 km
>= 3000ft
5 à 8 km
1000 à 3000 ft
1500m à 5 km
500 à 1000 ft
800 à 1500m
200 à 500 ft
< 800m
< 200 ft
Symboles :   Orages  Brouillard  Fortes neiges  Fortes précipitations  Vent > 20 kt
SIGMETs :   Divers  Orages  Givrage  Turbulence  Onde Orograph.  Cendres Volcan.







- Altitude de l'aérodrome : 37 ft
- Code IATA : HLY


EGOV - RAF Valley

DERNIER METAR :
  • 201350Z 18023KT 4500 -DZ BKN004 OVC006 09/09 Q1013 RERA REDZ YLO2 TEMPO 2000 DZ BKN002 AMB

METARs EXPIRÉS :
  • 201333Z 18024KT 4000 -DZ BKN005 09/09 Q1013 YLO1 BECMG BKN003 YLO2
  • 201250Z 18025KT 4000 3500W RADZ FEW006 OVC008 09/09 Q1013 REDZ YLO1 TEMPO 2000 DZ SCT004 YLO2
  • 201239Z 18025KT 4000 -DZ OVC008 10/08 Q1013 GRN TEMPO 2000 DZ SCT004 YLO2
  • 201150Z 18024KT 9000 7000W -RA BKN010 OVC030 10/09 Q1013 GRN TEMPO SCT006 YLO1

TAF AMD TAF EGOV
Valide du 20 à 12h jusqu'au 20 à 19h UTC


201250Z 2012/2019 18025G35KT 9000 -RA OVC008
TEMPO 2012/2014 3000 -RADZ BKN005
BECMG 2014/2016 5000 -DZ OVC003
TEMPO 2014/2019 2000 DZ OVC002
BECMG 2015/2017 19022KT
PROB30
TEMPO 2016/2019 1500 DZ SCT001 BKN002
Pas de NOTAMs connus pour ce terrain.
1 SIGMET publié pour la FIR London (EGTT) :
 
Onde orographique forte
EGTT SIGMET 03 VALID 201330/201730 EGRR
EGTT LONDON FIR SEV MTW FCST WI N5500 W00116 - N5430 W00110 - N5245 W00200 - N5245 W00400 - N5500 W00330 - N5500 W00116 FL030/250 STNR WKN=



MET'MAP, la Météo Aéronautique d'un coup d'oeil ! - Copyright ORBIFLY Décembre 2007 - Disclaimer

ORBIFLY MET'MAP TEAM :

Programmation & Développement : Alexandra Zaïnal
Conception & Développement : Baudouin d'Aumeries
Co-Programmation & Développement : Marc-Olivier Méhu
Soutien technique & logistique : Manuel Goepfert

Contact : metmap@orbifly.com




SOURCES & CREDITS :

   NOAA